Time;durP1;ratioP1;P1;durP2;ratioP2;P2;SDS_P1;SDS_P2;PMS_P1;PMS_P2;Temp;Humidity;BMP_temperature;BMP_pressure;BME280_temperature;BME280_humidity;BME280_pressure;Samples;Min_cycle;Max_cycle;Signal;HPM_P1;HPM_P2
2022/05/19 00:01:01;;;;;;;;;7.25;7.00;;;;;26.57;49.62;100910.25;5040173;28;45651;-50
2022/05/19 00:03:23;;;;;;;;;9.20;9.20;;;;;26.66;50.09;100918.78;5058287;28;45855;-54
2022/05/19 00:05:49;;;;;;;;;12.75;12.75;;;;;26.65;49.94;100920.78;5057991;28;45479;-53
2022/05/19 00:08:15;;;;;;;;;9.50;8.50;;;;;26.66;49.98;100921.59;5058525;28;45427;-50
2022/05/19 00:10:41;;;;;;;;;11.00;10.00;;;;;26.67;49.38;100926.06;5058149;28;45616;-50
2022/05/19 00:13:06;;;;;;;;;10.75;10.75;;;;;26.67;49.65;100934.50;5057944;28;45465;-51
2022/05/19 00:15:32;;;;;;;;;8.25;8.25;;;;;26.62;49.85;100929.84;5058027;28;45436;-48
2022/05/19 00:17:57;;;;;;;;;11.00;9.75;;;;;26.61;50.18;100924.50;5058472;28;45416;-55
2022/05/19 00:20:23;;;;;;;;;12.25;12.25;;;;;26.54;49.79;100916.53;5058407;28;45547;-54
2022/05/19 00:22:48;;;;;;;;;10.00;10.00;;;;;26.53;50.26;100921.31;5056411;28;46262;-52
2022/05/19 00:25:14;;;;;;;;;10.25;9.75;;;;;26.34;50.27;100884.06;5058002;28;45245;-49
2022/05/19 00:27:39;;;;;;;;;10.50;10.50;;;;;26.48;50.46;100909.34;5058090;28;45256;-51
2022/05/19 00:30:05;;;;;;;;;12.00;10.50;;;;;26.44;50.52;100906.34;5058489;28;45352;-53
2022/05/19 00:32:31;;;;;;;;;10.00;9.50;;;;;26.28;50.74;100877.72;5056433;28;45398;-51
2022/05/19 00:34:56;;;;;;;;;11.25;11.25;;;;;26.41;50.71;100901.31;5056416;28;45656;-49
2022/05/19 00:37:22;;;;;;;;;9.50;7.50;;;;;26.42;50.54;100900.22;5057867;28;45249;-51
2022/05/19 00:39:48;;;;;;;;;13.40;12.00;;;;;26.40;50.81;100891.22;5057807;28;45263;-52
2022/05/19 00:44:59;;;;;;;;;11.40;10.20;;;;;26.41;50.62;100878.00;5057755;28;45380;-50
2022/05/19 00:47:24;;;;;;;;;10.25;10.25;;;;;26.39;50.63;100876.34;5057827;28;45346;-52
2022/05/19 00:49:50;;;;;;;;;10.25;10.25;;;;;26.37;50.68;100878.63;5055838;28;45533;-49
2022/05/19 00:52:24;;;;;;;;;11.75;11.00;;;;;26.29;50.68;100873.75;5056434;28;45305;-55
2022/05/19 00:55:17;;;;;;;;;11.20;10.60;;;;;26.28;51.18;100860.84;5057601;28;45408;-52
2022/05/19 00:57:45;;;;;;;;;11.20;10.60;;;;;26.24;51.28;100857.00;5057525;28;45306;-53
2022/05/19 01:00:14;;;;;;;;;10.00;10.00;;;;;26.16;51.01;100841.69;5039840;28;45591;-54
2022/05/19 01:02:42;;;;;;;;;11.40;11.40;;;;;26.30;51.13;100860.53;5057516;28;46182;-53
2022/05/19 01:05:09;;;;;;;;;11.20;10.00;;;;;26.07;51.37;100832.31;5057293;28;45294;-51
2022/05/19 01:07:46;;;;;;;;;13.00;12.40;;;;;26.24;51.35;100854.19;5073127;28;45352;-49
2022/05/19 01:10:11;;;;;;;;;9.60;9.60;;;;;26.16;51.34;100838.88;5073289;28;45742;-53
2022/05/19 01:12:38;;;;;;;;;15.00;15.00;;;;;26.24;51.41;100849.41;5056080;28;46112;-50
2022/05/19 01:15:03;;;;;;;;;13.60;13.20;;;;;26.25;51.42;100844.63;5039514;28;45419;-48
2022/05/19 01:17:29;;;;;;;;;12.60;10.60;;;;;26.23;51.68;100841.25;5057403;28;45354;-52
2022/05/19 01:19:57;;;;;;;;;11.00;11.00;;;;;26.22;51.53;100846.06;5056336;28;45662;-50
2022/05/19 01:22:54;;;;;;;;;10.80;10.80;;;;;26.21;51.76;100841.53;5055398;28;46457;-50
2022/05/19 01:25:41;;;;;;;;;12.40;12.40;;;;;26.17;51.54;100843.34;5056901;28;45542;-53
2022/05/19 01:28:06;;;;;;;;;10.60;10.60;;;;;26.19;51.75;100848.66;5041363;28;45359;-52
2022/05/19 01:30:32;;;;;;;;;13.75;12.25;;;;;26.15;51.36;100833.56;5057295;28;45284;-53
2022/05/19 01:32:58;;;;;;;;;15.60;13.00;;;;;26.10;52.00;100840.13;5057215;28;46051;-51
2022/05/19 01:35:23;;;;;;;;;11.00;11.00;;;;;25.74;52.06;100793.97;5056523;28;45364;-52
2022/05/19 01:37:49;;;;;;;;;13.00;12.00;;;;;26.06;52.04;100833.47;5057051;28;45310;-51
2022/05/19 01:40:41;;;;;;;;;10.50;10.50;;;;;26.04;52.20;100842.22;5039173;28;45510;-50
2022/05/19 01:43:19;;;;;;;;;10.60;10.40;;;;;26.01;52.30;100844.81;5056920;28;45670;-53
2022/05/19 01:45:47;;;;;;;;;12.60;10.40;;;;;25.99;52.40;100843.16;5055688;28;45408;-53
2022/05/19 01:48:31;;;;;;;;;10.80;10.80;;;;;25.94;52.47;100845.25;5055584;28;45279;-52
2022/05/19 01:51:08;;;;;;;;;13.40;13.40;;;;;25.92;52.74;100839.13;5057149;28;45305;-50
2022/05/19 01:53:48;;;;;;;;;12.20;11.60;;;;;25.87;53.14;100847.66;5055415;28;46595;-52
2022/05/19 01:56:37;;;;;;;;;12.60;11.40;;;;;25.79;53.07;100837.97;5056682;28;45416;-48
2022/05/19 01:59:11;;;;;;;;;11.20;10.40;;;;;25.81;53.18;100838.50;5040839;28;45375;-49
2022/05/19 02:01:37;;;;;;;;;12.80;12.80;;;;;25.81;53.18;100841.31;5022611;28;45927;-50
2022/05/19 02:04:52;;;;;;;;;10.25;10.25;;;;;25.71;53.31;100839.53;5055588;28;45860;-50
2022/05/19 02:07:17;;;;;;;;;14.00;12.80;;;;;25.63;53.53;100832.69;5032660;28;45328;-53
2022/05/19 02:09:49;;;;;;;;;13.25;13.25;;;;;25.42;53.77;100801.31;5056308;28;45124;-54
2022/05/19 02:12:14;;;;;;;;;11.40;11.00;;;;;25.60;53.63;100844.53;5055361;28;45448;-52
2022/05/19 02:14:46;;;;;;;;;12.00;12.00;;;;;25.65;53.95;100840.78;5054560;28;46046;-50
2022/05/19 02:17:12;;;;;;;;;12.40;12.20;;;;;25.63;54.03;100829.88;5056621;28;45331;-53
2022/05/19 02:19:43;;;;;;;;;12.20;12.00;;;;;25.61;53.50;100832.16;5038497;28;45413;-54
2022/05/19 02:22:10;;;;;;;;;12.20;12.20;;;;;25.53;54.02;100814.06;5038690;28;45308;-49
2022/05/19 02:24:36;;;;;;;;;13.80;12.20;;;;;25.54;54.17;100828.94;5054463;28;46821;-49
2022/05/19 02:27:34;;;;;;;;;13.80;13.60;;;;;25.60;54.05;100840.91;5038197;28;45497;-51
2022/05/19 02:30:01;;;;;;;;;14.20;14.00;;;;;25.62;53.90;100839.47;5056447;28;45337;-54
2022/05/19 02:32:27;;;;;;;;;11.00;11.00;;;;;25.60;54.08;100835.28;5055087;28;45424;-52
2022/05/19 02:34:53;;;;;;;;;15.20;12.60;;;;;25.54;54.09;100832.59;5055659;28;46965;-51
2022/05/19 02:37:18;;;;;;;;;13.50;10.75;;;;;25.44;53.97;100810.25;5056104;28;45252;-54
2022/05/19 02:39:44;;;;;;;;;14.00;13.75;;;;;25.56;54.25;100847.13;5056085;28;45314;-50
2022/05/19 02:42:09;;;;;;;;;13.25;12.25;;;;;25.52;54.30;100837.69;5055134;28;45347;-55
2022/05/19 02:44:35;;;;;;;;;13.50;11.00;;;;;25.52;54.25;100842.44;5055909;28;45674;-53
2022/05/19 02:47:01;;;;;;;;;13.50;13.50;;;;;25.52;54.18;100846.13;5055721;28;45365;-51
2022/05/19 02:49:26;;;;;;;;;14.75;13.00;;;;;25.46;54.66;100836.09;5055861;28;45961;-50
2022/05/19 02:51:51;;;;;;;;;14.00;13.25;;;;;25.48;54.51;100835.75;5055861;28;45412;-52
2022/05/19 02:54:21;;;;;;;;;13.50;12.00;;;;;25.33;54.57;100811.63;5056050;28;45529;-50
2022/05/19 02:56:49;;;;;;;;;15.20;13.00;;;;;25.43;54.53;100837.53;5055516;28;45257;-49
2022/05/19 02:59:15;;;;;;;;;10.20;10.20;;;;;25.27;55.07;100816.50;5055531;28;45461;-48
2022/05/19 03:01:40;;;;;;;;;13.00;12.00;;;;;25.31;55.12;100845.66;5055995;28;45555;-50
2022/05/19 03:04:07;;;;;;;;;13.50;12.50;;;;;25.27;55.06;100841.78;5055528;28;45605;-52
2022/05/19 03:06:32;;;;;;;;;13.40;12.20;;;;;25.00;54.97;100799.31;5055441;28;45346;-51
2022/05/19 03:08:58;;;;;;;;;12.75;12.75;;;;;25.10;55.03;100822.72;5055606;28;45368;-51
2022/05/19 03:11:23;;;;;;;;;11.25;10.25;;;;;25.24;55.20;100850.84;5055476;28;45420;-49
2022/05/19 03:13:49;;;;;;;;;11.25;11.25;;;;;25.23;55.39;100841.56;5055480;28;45395;-54
2022/05/19 03:16:15;;;;;;;;;15.00;12.75;;;;;25.28;54.93;100846.25;5055320;28;45371;-52
2022/05/19 03:18:41;;;;;;;;;13.20;13.20;;;;;25.29;55.17;100843.13;5055791;28;45342;-49
2022/05/19 03:21:06;;;;;;;;;12.25;12.00;;;;;25.29;55.04;100831.91;5054155;28;45371;-49
2022/05/19 03:23:32;;;;;;;;;12.75;10.50;;;;;25.12;55.01;100797.97;5055358;28;45714;-48
2022/05/19 03:25:57;;;;;;;;;13.00;12.00;;;;;25.11;55.24;100807.53;5055306;28;45334;-52
2022/05/19 03:28:23;;;;;;;;;11.00;10.00;;;;;25.30;54.97;100844.78;5055446;28;45527;-56
2022/05/19 03:30:48;;;;;;;;;11.00;11.00;;;;;25.31;55.14;100838.03;5055816;28;45539;-54
2022/05/19 03:33:14;;;;;;;;;12.50;12.50;;;;;25.30;55.27;100841.16;5054817;28;46132;-52
2022/05/19 03:35:40;;;;;;;;;10.00;10.00;;;;;25.32;55.31;100841.69;5055311;28;45482;-51
2022/05/19 03:38:06;;;;;;;;;11.20;9.60;;;;;25.17;55.10;100820.34;5053832;28;45921;-50
2022/05/19 03:40:32;;;;;;;;;12.20;10.40;;;;;25.31;55.10;100837.22;5055634;28;45566;-54
2022/05/19 03:42:57;;;;;;;;;15.75;14.50;;;;;25.29;55.25;100834.72;5055180;28;46014;-51
2022/05/19 03:45:23;;;;;;;;;13.25;13.00;;;;;25.24;55.41;100837.59;5055051;28;45491;-50
2022/05/19 03:47:48;;;;;;;;;13.00;13.00;;;;;25.23;55.35;100835.94;5055170;28;45464;-52
2022/05/19 03:50:14;;;;;;;;;13.00;13.00;;;;;25.22;55.85;100837.09;5055151;28;45426;-54
2022/05/19 03:52:40;;;;;;;;;13.50;11.75;;;;;25.13;55.64;100834.16;5055003;28;45332;-50
2022/05/19 03:55:06;;;;;;;;;11.80;9.00;;;;;25.00;56.00;100835.81;5055274;28;45348;-52
2022/05/19 03:57:31;;;;;;;;;13.25;13.25;;;;;24.97;55.98;100836.41;5054794;28;45222;-53
2022/05/19 03:59:57;;;;;;;;;14.75;14.75;;;;;24.92;56.21;100830.91;5055065;28;45573;-51
2022/05/19 04:02:22;;;;;;;;;13.75;12.25;;;;;24.95;56.07;100835.91;5054431;28;45802;-49
2022/05/19 04:04:48;;;;;;;;;13.25;13.25;;;;;24.94;56.26;100839.00;5055083;28;45445;-52
2022/05/19 04:07:13;;;;;;;;;17.50;15.25;;;;;24.93;56.18;100845.75;5054994;28;45416;-56
2022/05/19 04:09:39;;;;;;;;;15.00;12.75;;;;;24.91;56.02;100840.44;5055265;28;45718;-54
2022/05/19 04:12:06;;;;;;;;;10.75;10.00;;;;;24.85;56.42;100836.06;5054803;28;46044;-49
2022/05/19 04:14:31;;;;;;;;;14.20;14.20;;;;;24.86;56.40;100846.16;5054386;28;45637;-52
2022/05/19 04:16:57;;;;;;;;;13.50;12.50;;;;;24.61;56.49;100806.97;5055164;28;45783;-53
2022/05/19 04:19:23;;;;;;;;;16.25;15.75;;;;;24.87;56.04;100831.00;5036940;28;45447;-52
2022/05/19 04:21:48;;;;;;;;;14.00;13.75;;;;;24.85;56.10;100842.53;5054676;28;47146;-53
2022/05/19 04:24:14;;;;;;;;;16.00;14.00;;;;;24.62;56.54;100811.44;5055728;28;45781;-49
2022/05/19 04:26:39;;;;;;;;;14.00;14.00;;;;;24.80;56.41;100836.13;5056710;28;45476;-50
2022/05/19 04:29:05;;;;;;;;;15.25;15.25;;;;;24.78;56.43;100834.44;5057099;28;45330;-53
2022/05/19 04:31:31;;;;;;;;;13.00;13.00;;;;;24.81;56.76;100838.66;5056428;28;46969;-53
2022/05/19 04:33:57;;;;;;;;;11.60;10.40;;;;;24.76;56.62;100838.72;5057993;28;45354;-51
2022/05/19 04:36:22;;;;;;;;;13.00;12.50;;;;;24.78;56.28;100837.25;5058049;28;45291;-51
2022/05/19 04:38:48;;;;;;;;;12.00;12.00;;;;;24.78;56.37;100842.06;5056765;28;45594;-50
2022/05/19 04:41:13;;;;;;;;;13.75;13.75;;;;;24.75;55.95;100843.50;5057806;28;45325;-48
2022/05/19 04:43:39;;;;;;;;;13.75;13.00;;;;;24.77;56.15;100852.44;5057314;28;45439;-51
2022/05/19 04:46:04;;;;;;;;;13.75;11.75;;;;;24.72;56.08;100835.69;5058174;28;45337;-54
2022/05/19 04:48:30;;;;;;;;;12.00;12.00;;;;;24.78;55.96;100851.28;5056610;28;45493;-55
2022/05/19 04:50:57;;;;;;;;;15.25;13.25;;;;;24.76;56.05;100847.97;5056210;28;47090;-47
2022/05/19 04:53:23;;;;;;;;;16.20;12.40;;;;;24.85;56.41;100867.78;5056285;28;45475;-49
2022/05/19 04:55:49;;;;;;;;;14.00;13.25;;;;;24.81;55.69;100865.91;5057799;28;45384;-50
2022/05/19 04:58:14;;;;;;;;;17.25;16.25;;;;;24.92;56.01;100889.00;5056629;28;45669;-52
2022/05/19 05:00:40;;;;;;;;;12.25;12.25;;;;;24.82;55.21;100871.22;5057358;28;45505;-54
2022/05/19 05:03:06;;;;;;;;;12.00;12.00;;;;;24.97;55.56;100892.56;5057513;28;45558;-53
2022/05/19 05:05:32;;;;;;;;;11.60;10.60;;;;;24.97;55.42;100900.97;5058086;28;45312;-53
2022/05/19 05:07:57;;;;;;;;;11.00;11.00;;;;;24.82;55.48;100873.19;5057867;28;45858;-53
2022/05/19 05:10:23;;;;;;;;;13.00;12.00;;;;;25.03;55.68;100905.38;5057659;28;46545;-51
2022/05/19 05:12:48;;;;;;;;;13.75;13.00;;;;;24.67;55.50;100872.25;5057284;28;45289;-50
2022/05/19 05:15:14;;;;;;;;;12.75;12.75;;;;;24.78;56.18;100895.38;5057446;28;45235;-53
2022/05/19 05:17:39;;;;;;;;;13.50;13.50;;;;;24.95;56.32;100965.03;5057928;28;45303;-49
2022/05/19 05:20:05;;;;;;;;;12.25;12.25;;;;;24.95;56.47;100981.88;5057485;28;45407;-51
2022/05/19 05:22:34;;;;;;;;;15.00;15.00;;;;;25.00;55.98;100944.44;5057114;28;45427;-53
2022/05/19 05:25:04;;;;;;;;;14.60;13.00;;;;;25.01;55.82;100921.69;5057595;28;45411;-51
2022/05/19 05:27:29;;;;;;;;;16.40;12.80;;;;;24.87;55.77;100927.25;5057781;28;45595;-49
2022/05/19 05:29:55;;;;;;;;;11.50;11.50;;;;;25.03;55.74;100953.09;5057467;28;46071;-53
2022/05/19 05:32:20;;;;;;;;;13.25;12.00;;;;;25.03;55.48;100947.47;5056206;28;45391;-51
2022/05/19 05:34:46;;;;;;;;;12.00;12.00;;;;;24.90;55.10;100931.41;5057423;28;45351;-52
2022/05/19 05:37:11;;;;;;;;;11.25;10.50;;;;;24.99;55.09;100957.66;5056048;28;45515;-55
2022/05/19 05:39:37;;;;;;;;;12.25;12.00;;;;;24.92;55.12;100920.72;5055720;28;45394;-54
2022/05/19 05:42:04;;;;;;;;;9.75;9.75;;;;;25.11;54.90;100951.56;5055726;28;45375;-51
2022/05/19 05:44:29;;;;;;;;;17.20;14.80;;;;;24.95;54.71;100920.09;5055928;28;45354;-54
2022/05/19 05:46:55;;;;;;;;;11.75;10.50;;;;;24.49;54.79;100849.50;5057700;28;45419;-49
2022/05/19 05:49:20;;;;;;;;;14.00;13.25;;;;;25.12;54.96;100938.34;5056949;28;46033;-52
2022/05/19 05:51:48;;;;;;;;;13.00;11.75;;;;;24.97;54.54;100908.59;5041830;28;45654;-52
2022/05/19 05:54:13;;;;;;;;;10.80;10.60;;;;;25.21;54.05;100947.75;5052695;28;45381;-52
2022/05/19 05:56:39;;;;;;;;;11.75;11.75;;;;;25.22;54.50;100941.00;5056134;28;45270;-54
2022/05/19 05:59:04;;;;;;;;;12.00;12.00;;;;;25.27;54.31;100949.34;5056359;28;46453;-54
2022/05/19 06:01:30;;;;;;;;;14.75;13.00;;;;;25.31;54.10;100935.53;5056083;28;45496;-54
2022/05/19 06:03:55;;;;;;;;;13.25;12.00;;;;;25.16;54.28;100912.19;5056435;28;45841;-53
2022/05/19 06:06:21;;;;;;;;;16.00;13.50;;;;;25.36;54.05;100935.44;5056572;28;45594;-54
2022/05/19 06:08:46;;;;;;;;;14.75;11.75;;;;;25.39;54.11;100936.78;5056480;28;46001;-53
2022/05/19 06:11:13;;;;;;;;;10.75;10.75;;;;;25.36;54.16;100937.41;5056395;28;45407;-55
2022/05/19 06:13:39;;;;;;;;;15.60;14.20;;;;;25.28;53.98;100939.78;5056372;28;45541;-50
2022/05/19 06:16:04;;;;;;;;;13.75;11.00;;;;;25.22;54.01;100940.16;5055332;28;45632;-50
2022/05/19 06:18:30;;;;;;;;;8.25;8.25;;;;;25.27;54.31;100951.31;5056100;28;46012;-53
2022/05/19 06:20:55;;;;;;;;;10.50;10.00;;;;;25.14;54.29;100927.66;5056748;28;45270;-55
2022/05/19 06:23:21;;;;;;;;;12.75;11.75;;;;;25.36;54.35;100957.91;5056151;28;45386;-55
2022/05/19 06:25:46;;;;;;;;;16.00;12.25;;;;;25.39;54.26;100953.66;5055185;28;45568;-49
2022/05/19 06:28:12;;;;;;;;;12.75;11.75;;;;;25.43;54.02;100961.16;5055814;28;46323;-50
2022/05/19 06:30:38;;;;;;;;;13.25;11.75;;;;;25.45;53.91;100952.38;5055774;28;45369;-55
2022/05/19 06:33:05;;;;;;;;;9.25;9.25;;;;;25.40;54.08;100944.88;5056392;28;45363;-53
2022/05/19 06:35:31;;;;;;;;;13.20;13.20;;;;;25.18;53.76;100895.84;5056264;28;45465;-53
2022/05/19 06:37:57;;;;;;;;;13.00;12.75;;;;;25.43;54.07;100940.63;5055979;28;46646;-49
2022/05/19 06:40:24;;;;;;;;;12.00;11.25;;;;;25.48;53.83;100946.16;5055507;28;45407;-53
2022/05/19 06:42:49;;;;;;;;;13.00;12.00;;;;;25.53;53.98;100945.25;5054568;28;45408;-56
2022/05/19 06:45:17;;;;;;;;;13.25;11.50;;;;;25.54;53.78;100953.41;5056283;28;45370;-49
2022/05/19 06:47:43;;;;;;;;;14.20;12.40;;;;;25.50;54.03;100949.50;5055176;28;46127;-51
2022/05/19 06:50:09;;;;;;;;;12.40;12.40;;;;;25.53;53.91;100950.88;5055891;28;45259;-53
2022/05/19 06:52:44;;;;;;;;;13.80;13.00;;;;;25.54;53.91;100960.97;5055679;28;45320;-55
2022/05/19 06:55:10;;;;;;;;;15.60;12.40;;;;;25.55;53.85;100940.16;5054604;28;45346;-54
2022/05/19 06:57:36;;;;;;;;;17.00;13.75;;;;;25.47;53.60;100938.88;5055539;28;46268;-53
2022/05/19 07:00:03;;;;;;;;;11.00;11.00;;;;;25.64;53.63;100954.34;5055340;28;45866;-51
2022/05/19 07:02:29;;;;;;;;;16.60;16.60;;;;;25.62;53.57;100957.47;5055107;28;45436;-50
2022/05/19 07:04:54;;;;;;;;;13.50;13.50;;;;;25.39;54.00;100933.97;5054709;28;45393;-55
2022/05/19 07:07:20;;;;;;;;;15.50;15.00;;;;;25.56;54.25;100959.53;5054645;28;45869;-53
2022/05/19 07:09:45;;;;;;;;;18.25;17.25;;;;;25.55;54.24;100959.81;5055418;28;45359;-50
2022/05/19 07:12:11;;;;;;;;;17.25;16.25;;;;;25.38;54.56;100944.38;5054376;28;45314;-50
2022/05/19 07:14:37;;;;;;;;;14.60;14.60;;;;;25.37;54.32;100934.28;5037517;28;45624;-51
2022/05/19 07:17:03;;;;;;;;;12.00;12.00;;;;;25.59;54.40;100969.31;5055599;28;45303;-48
2022/05/19 07:22:18;;;;;;;;;14.80;13.60;;;;;25.56;54.64;100961.53;5009414;28;45693;-46
2022/05/19 07:24:43;;;;;;;;;15.00;15.00;;;;;25.44;55.01;100961.97;5034996;28;45624;-52
2022/05/19 07:27:09;;;;;;;;;18.75;18.75;;;;;25.40;54.81;100964.56;5035218;28;46754;-52
2022/05/19 07:29:34;;;;;;;;;14.25;14.25;;;;;25.37;55.43;100956.75;5035280;28;45393;-51
2022/05/19 07:32:02;;;;;;;;;17.25;14.75;;;;;25.38;55.48;100964.03;5064429;28;45723;-48
2022/05/19 07:34:30;;;;;;;;;19.20;17.60;;;;;25.36;55.70;100962.69;5074525;28;45606;-50
2022/05/19 07:36:55;;;;;;;;;15.80;15.40;;;;;25.33;55.35;100975.34;5039436;27;45907;-54
2022/05/19 07:39:21;;;;;;;;;13.60;13.60;;;;;25.00;55.04;100907.94;5037232;28;45380;-51
2022/05/19 07:41:47;;;;;;;;;14.60;11.60;;;;;25.51;55.09;100981.25;5054935;28;45454;-48
2022/05/19 07:44:13;;;;;;;;;18.50;16.50;;;;;25.43;54.95;100972.38;5066301;27;45669;-54
2022/05/19 07:46:39;;;;;;;;;17.00;13.75;;;;;25.47;55.20;100968.94;5075183;28;46771;-52
2022/05/19 07:49:05;;;;;;;;;17.00;13.75;;;;;25.56;54.85;100973.56;5075125;27;45411;-52
2022/05/19 07:51:36;;;;;;;;;15.80;14.40;;;;;25.49;54.45;100969.50;5075192;27;45226;-49
2022/05/19 07:54:06;;;;;;;;;14.60;14.40;;;;;25.49;54.12;100969.50;5073932;28;45471;-51
2022/05/19 07:56:31;;;;;;;;;14.60;13.40;;;;;25.65;53.89;100993.38;5073546;27;46472;-54
2022/05/19 07:58:57;;;;;;;;;15.25;15.00;;;;;25.65;54.08;101003.78;5074535;28;45969;-50
2022/05/19 08:01:22;;;;;;;;;13.25;13.25;;;;;25.71;54.19;100996.91;5078697;27;45363;-52
2022/05/19 08:03:48;;;;;;;;;16.00;14.25;;;;;25.77;53.77;101003.28;5077890;28;45319;-50
2022/05/19 08:06:13;;;;;;;;;13.75;13.75;;;;;25.84;53.82;101004.53;5077266;28;46018;-51
2022/05/19 08:08:39;;;;;;;;;15.50;13.75;;;;;25.83;53.69;100990.81;5076873;28;45293;-52
2022/05/19 08:11:05;;;;;;;;;18.00;15.75;;;;;26.08;53.25;101017.59;5078723;28;45327;-53
2022/05/19 08:16:15;;;;;;;;;16.00;13.80;;;;;25.62;53.44;100967.88;5058075;28;45366;-52
2022/05/19 08:18:40;;;;;;;;;14.00;14.00;;;;;25.92;53.63;101045.16;5058452;28;45356;-54
2022/05/19 08:21:07;;;;;;;;;13.75;13.75;;;;;25.85;53.90;101044.75;5061016;28;45382;-54
2022/05/19 08:23:34;;;;;;;;;16.00;15.20;;;;;25.51;54.96;101012.97;5077731;27;45473;-55
2022/05/19 08:26:00;;;;;;;;;15.20;13.00;;;;;25.74;55.00;101037.63;5072632;28;46172;-54
2022/05/19 08:28:29;;;;;;;;;15.25;14.00;;;;;25.60;54.82;101009.50;5056049;28;45787;-59
2022/05/19 08:30:58;;;;;;;;;14.20;13.00;;;;;25.84;54.84;101052.31;5039012;28;45594;-52
2022/05/19 08:33:24;;;;;;;;;17.20;15.60;;;;;25.93;54.58;101062.88;5067116;28;45450;-47
2022/05/19 08:35:49;;;;;;;;;17.75;17.00;;;;;25.76;54.52;101038.16;5035452;28;48170;-45
2022/05/19 08:38:15;;;;;;;;;14.50;14.50;;;;;25.83;54.33;101064.72;5055504;28;45472;-50
2022/05/19 08:40:47;;;;;;;;;14.00;13.50;;;;;25.73;54.67;101064.91;5055871;28;45404;-50
2022/05/19 08:43:14;;;;;;;;;16.00;14.00;;;;;25.79;54.66;101108.66;5054799;28;45440;-49
2022/05/19 08:45:42;;;;;;;;;14.80;14.80;;;;;25.73;54.42;101098.63;5083875;27;46321;-53
2022/05/19 08:48:13;;;;;;;;;14.80;13.40;;;;;25.69;54.28;101104.03;5055713;28;45418;-54
2022/05/19 08:50:46;;;;;;;;;18.00;15.20;;;;;25.66;53.83;101103.81;5055390;28;45496;-47
2022/05/19 08:53:12;;;;;;;;;10.00;10.00;;;;;25.67;53.45;101114.72;5056020;28;45514;-51
2022/05/19 08:55:40;;;;;;;;;11.00;8.80;;;;;25.64;53.37;101122.94;5056433;28;45664;-49
2022/05/19 08:58:17;;;;;;;;;9.40;9.00;;;;;25.64;53.30;101115.34;5058931;28;45298;-49
2022/05/19 09:00:49;;;;;;;;;13.80;11.60;;;;;25.64;52.69;101111.69;5059985;28;45527;-50
2022/05/19 09:03:22;;;;;;;;;13.20;9.40;;;;;25.68;52.53;101124.00;5075421;28;45349;-49
2022/05/19 09:06:13;;;;;;;;;8.40;7.80;;;;;25.74;52.60;101131.22;5075224;28;46404;-53
2022/05/19 09:08:45;;;;;;;;;8.80;8.80;;;;;25.79;52.16;101141.53;5057025;28;46458;-47
2022/05/19 09:11:20;;;;;;;;;11.00;8.40;;;;;25.73;52.43;101149.22;5075562;28;45340;-50
2022/05/19 09:13:59;;;;;;;;;11.00;10.60;;;;;25.70;52.18;101153.47;5067949;27;45521;-50
2022/05/19 09:16:29;;;;;;;;;9.80;8.40;;;;;25.61;51.51;101152.47;5038557;28;47473;-52
2022/05/19 09:19:10;;;;;;;;;10.80;8.00;;;;;25.57;51.60;101159.88;5071700;28;45559;-48
2022/05/19 09:21:37;;;;;;;;;9.80;7.00;;;;;25.58;51.45;101153.97;5067305;28;45421;-47
2022/05/19 09:24:04;;;;;;;;;11.60;11.60;;;;;25.51;50.95;101170.31;5057246;28;45557;-48
2022/05/19 09:26:35;;;;;;;;;6.00;6.00;;;;;25.50;50.84;101173.44;5013505;28;48689;-46
2022/05/19 09:29:42;;;;;;;;;6.00;6.00;;;;;25.51;50.38;101180.72;5054908;28;45441;-49
2022/05/19 09:32:18;;;;;;;;;7.00;7.00;;;;;25.43;50.18;101174.66;5055954;28;45495;-50
2022/05/19 09:34:49;;;;;;;;;5.80;5.80;;;;;25.09;50.19;101138.31;5071780;27;45411;-54
2022/05/19 09:37:37;;;;;;;;;11.60;9.20;;;;;25.48;50.26;101200.97;5055769;28;46873;-51
2022/05/19 09:40:23;;;;;;;;;9.80;9.40;;;;;25.31;49.60;101183.50;5053949;28;45492;-54
2022/05/19 09:43:20;;;;;;;;;12.40;12.40;;;;;25.39;49.22;101212.09;5038615;28;45473;-51
2022/05/19 09:46:04;;;;;;;;;13.20;12.40;;;;;25.39;48.94;101212.91;5056006;28;46639;-52
2022/05/19 09:48:35;;;;;;;;;15.20;13.80;;;;;25.38;48.77;101239.31;5049531;28;46132;-53
2022/05/19 09:51:03;;;;;;;;;18.40;16.20;;;;;25.47;48.66;101241.47;5055568;28;45423;-53
2022/05/19 09:53:29;;;;;;;;;15.00;14.20;;;;;25.44;48.56;101245.69;5055759;28;45569;-48
2022/05/19 09:56:00;;;;;;;;;15.60;14.00;;;;;25.37;47.62;101248.06;5057822;28;45527;-49
2022/05/19 09:58:27;;;;;;;;;13.00;13.00;;;;;25.35;48.14;101268.00;5051340;28;46746;-50
2022/05/19 10:00:54;;;;;;;;;15.00;12.80;;;;;25.33;47.68;101249.81;5055566;28;45712;-51
2022/05/19 10:03:25;;;;;;;;;9.80;9.00;;;;;25.38;47.67;101244.09;5055089;28;45357;-50
2022/05/19 10:05:55;;;;;;;;;12.80;12.80;;;;;25.43;47.30;101249.66;5055593;28;45423;-52
2022/05/19 10:08:26;;;;;;;;;11.80;10.80;;;;;25.25;47.24;101228.81;5054450;28;45483;-50
2022/05/19 10:10:59;;;;;;;;;9.80;8.20;;;;;25.27;47.32;101233.00;5054691;28;45547;-49
2022/05/19 10:13:27;;;;;;;;;8.80;7.20;;;;;25.17;47.11;101235.94;5055853;28;45432;-50
2022/05/19 10:15:57;;;;;;;;;6.00;6.00;;;;;25.11;47.21;101246.41;5055518;28;45464;-46
2022/05/19 10:18:49;;;;;;;;;6.40;5.00;;;;;25.12;46.78;101262.09;5055208;28;45770;-50
2022/05/19 10:21:19;;;;;;;;;5.40;5.40;;;;;25.23;47.04;101273.25;5053702;28;45413;-47
2022/05/19 10:23:50;;;;;;;;;8.20;6.20;;;;;25.02;46.92;101239.75;5053917;28;45402;-49
2022/05/19 10:26:32;;;;;;;;;5.20;5.20;;;;;25.42;46.61;101287.31;5056243;28;45720;-50
2022/05/19 10:32:47;;;;;;;;;4.00;4.00;;;;;25.64;45.57;101291.56;5053752;28;45353;-55
2022/05/19 10:35:21;;;;;;;;;4.00;4.00;;;;;25.81;44.54;101268.56;5056934;28;45399;-51
2022/05/19 10:37:47;;;;;;;;;2.80;2.80;;;;;25.87;44.27;101266.53;5057017;28;45829;-51
2022/05/19 10:40:34;;;;;;;;;4.00;4.00;;;;;26.01;43.58;101263.78;5039902;27;45924;-50
2022/05/19 10:43:13;;;;;;;;;6.80;4.00;;;;;26.09;42.95;101269.53;5044660;28;45751;-53
2022/05/19 10:45:39;;;;;;;;;3.60;3.60;;;;;26.12;42.79;101273.72;5044959;28;45773;-54
2022/05/19 10:48:32;;;;;;;;;4.00;4.00;;;;;26.10;42.82;101237.47;5055843;27;45727;-50
2022/05/19 10:51:39;;;;;;;;;3.40;2.00;;;;;26.08;42.18;101227.66;5043226;28;46511;-54
2022/05/19 10:54:10;;;;;;;;;2.80;2.80;;;;;26.47;42.09;101271.47;4967792;28;45657;-56
2022/05/19 10:56:58;;;;;;;;;1.80;1.80;;;;;26.50;42.16;101284.97;4969049;28;45594;-53
2022/05/19 10:59:54;;;;;;;;;2.00;2.00;;;;;26.32;42.20;101249.25;5011159;28;45782;-52
2022/05/19 11:02:29;;;;;;;;;2.60;2.00;;;;;26.47;41.83;101273.47;5060089;28;45774;-55
2022/05/19 11:05:20;;;;;;;;;1.40;1.40;;;;;26.30;41.81;101248.72;5061577;28;45521;-58
2022/05/19 11:07:49;;;;;;;;;4.80;2.60;;;;;26.41;41.42;101271.91;5051038;28;45736;-50
2022/05/19 11:10:33;;;;;;;;;4.00;4.00;;;;;26.41;41.84;101271.91;5052019;28;45478;-53
2022/05/19 11:13:02;;;;;;;;;2.60;2.60;;;;;26.40;40.98;101265.41;5032358;28;47673;-55
2022/05/19 11:15:38;;;;;;;;;3.60;3.00;;;;;26.39;41.30;101256.16;5057580;28;45501;-49
2022/05/19 11:18:15;;;;;;;;;3.00;3.00;;;;;26.41;41.37;101266.28;5070327;28;45454;-55
2022/05/19 11:21:09;;;;;;;;;3.80;3.80;;;;;26.44;41.09;101274.94;5053998;28;45491;-52
2022/05/19 11:23:46;;;;;;;;;1.20;1.20;;;;;26.41;40.93;101269.09;5071477;27;46718;-53
2022/05/19 11:26:31;;;;;;;;;1.60;1.60;;;;;26.33;41.11;101257.38;5071289;28;45899;-53
2022/05/19 11:29:06;;;;;;;;;2.00;2.00;;;;;26.28;41.24;101246.22;5068798;28;45600;-53
2022/05/19 11:31:50;;;;;;;;;3.00;3.00;;;;;26.55;40.91;101253.06;5071841;27;45606;-52
2022/05/19 11:34:22;;;;;;;;;3.40;2.20;;;;;26.50;39.87;101237.13;5057050;27;46042;-54